createdAt,value
2018-12-24T00:00:32.686Z,4.28
2018-12-24T00:01:38.097Z,3.37
2018-12-24T00:02:43.846Z,4.45
2018-12-24T00:03:49.362Z,4.37
2018-12-24T00:04:54.780Z,4.22
2018-12-24T00:06:00.132Z,4.30
2018-12-24T00:07:05.544Z,4.30
2018-12-24T00:08:11.037Z,3.90
2018-12-24T00:09:16.367Z,3.70
2018-12-24T00:10:22.007Z,3.92
2018-12-24T00:11:27.511Z,3.87
2018-12-24T00:12:32.861Z,4.17
2018-12-24T00:13:38.408Z,3.80
2018-12-24T00:14:44.066Z,3.67
2018-12-24T00:15:49.625Z,4.25
2018-12-24T00:16:55.084Z,4.53
2018-12-24T00:18:00.656Z,4.10
2018-12-24T00:19:16.274Z,4.17
2018-12-24T00:20:22.551Z,3.67
2018-12-24T00:21:28.082Z,4.83
2018-12-24T00:22:33.614Z,4.20
2018-12-24T00:23:39.152Z,4.12
2018-12-24T00:24:44.620Z,3.85
2018-12-24T00:25:50.139Z,3.62
2018-12-24T00:26:55.683Z,3.95
2018-12-24T00:28:01.109Z,4.33
2018-12-24T00:29:06.628Z,3.92
2018-12-24T00:30:12.264Z,3.62
2018-12-24T00:31:17.851Z,4.25
2018-12-24T00:32:23.230Z,4.35
2018-12-24T00:33:28.723Z,4.22
2018-12-24T00:34:34.176Z,4.42
2018-12-24T00:35:39.622Z,4.55
2018-12-24T00:36:45.027Z,4.20
2018-12-24T00:37:50.561Z,4.40
2018-12-24T00:38:56.055Z,4.28
2018-12-24T00:40:01.536Z,4.42
2018-12-24T00:41:07.011Z,4.53
2018-12-24T00:42:15.961Z,4.85
2018-12-24T00:43:19.467Z,5.03
2018-12-24T00:44:24.936Z,4.58
2018-12-24T00:45:30.389Z,5.22
2018-12-24T00:46:35.782Z,4.80
2018-12-24T00:47:41.246Z,4.70
2018-12-24T00:48:46.671Z,4.72
2018-12-24T00:49:52.627Z,4.42
2018-12-24T00:50:57.940Z,4.37
2018-12-24T00:52:03.380Z,3.95
2018-12-24T00:53:08.936Z,5.58
2018-12-24T00:54:17.505Z,4.05
2018-12-24T00:55:22.923Z,4.20
2018-12-24T00:56:28.280Z,4.17
2018-12-24T00:57:33.768Z,4.10
2018-12-24T00:58:39.187Z,4.58
2018-12-24T00:59:44.807Z,5.12
2018-12-24T01:00:50.274Z,4.08
2018-12-24T01:01:55.763Z,4.42
2018-12-24T01:03:01.209Z,4.33
2018-12-24T01:04:06.742Z,4.42
2018-12-24T01:05:12.382Z,4.17
2018-12-24T01:06:17.835Z,3.83
2018-12-24T01:07:23.242Z,4.40
2018-12-24T01:08:28.651Z,4.12
2018-12-24T01:09:34.028Z,3.45
2018-12-24T01:10:39.329Z,3.50
2018-12-24T01:11:44.631Z,3.85
2018-12-24T01:12:50.055Z,3.02
2018-12-24T01:13:55.618Z,3.22
2018-12-24T01:15:01.040Z,3.10
2018-12-24T01:16:06.486Z,3.47
2018-12-24T01:17:11.888Z,2.92
2018-12-24T01:18:17.288Z,3.83
2018-12-24T01:19:22.618Z,3.47
2018-12-24T01:20:28.292Z,7.50
2018-12-24T01:21:33.711Z,4.87
2018-12-24T01:22:39.002Z,3.22
2018-12-24T01:23:44.470Z,3.15
2018-12-24T01:24:49.900Z,2.98
2018-12-24T01:25:55.176Z,2.85
2018-12-24T01:27:00.552Z,3.00
2018-12-24T01:28:05.824Z,2.80
2018-12-24T01:29:11.324Z,3.42
2018-12-24T01:30:16.680Z,3.00
2018-12-24T01:31:21.948Z,2.98
2018-12-24T01:32:27.354Z,3.22
2018-12-24T01:33:32.736Z,3.10
2018-12-24T01:34:38.027Z,3.62
2018-12-24T01:35:43.392Z,3.22
2018-12-24T01:36:48.752Z,3.33
2018-12-24T01:37:54.044Z,3.40
2018-12-24T01:38:59.460Z,3.40
2018-12-24T01:40:04.733Z,3.30
2018-12-24T01:41:10.075Z,3.40
2018-12-24T01:42:15.471Z,3.20
2018-12-24T01:43:20.799Z,3.52
2018-12-24T01:44:26.714Z,3.30
2018-12-24T01:45:31.933Z,3.52
2018-12-24T01:46:37.269Z,3.20
2018-12-24T01:47:42.744Z,3.40
2018-12-24T01:48:48.084Z,3.30
2018-12-24T01:49:53.541Z,3.50
2018-12-24T01:50:58.931Z,3.47
2018-12-24T01:52:04.224Z,3.12
2018-12-24T01:53:09.612Z,3.40
2018-12-24T01:54:15.202Z,3.40
2018-12-24T01:55:20.438Z,3.67
2018-12-24T01:56:25.828Z,3.45
2018-12-24T01:57:31.205Z,3.35
2018-12-24T01:58:36.587Z,3.20
2018-12-24T01:59:42.049Z,3.47
2018-12-24T02:00:47.384Z,3.58
2018-12-24T02:01:52.818Z,3.58
2018-12-24T02:02:58.156Z,5.10
2018-12-24T02:04:03.860Z,4.12
2018-12-24T02:05:09.299Z,3.30
2018-12-24T02:06:14.676Z,3.50
2018-12-24T02:07:19.932Z,3.58
2018-12-24T02:08:25.349Z,3.40
2018-12-24T02:09:30.760Z,3.80
2018-12-24T02:10:36.161Z,3.58
2018-12-24T02:11:41.470Z,3.30
2018-12-24T02:12:46.752Z,3.50
2018-12-24T02:13:52.103Z,3.35
2018-12-24T02:14:57.531Z,3.10
2018-12-24T02:16:02.896Z,3.35
2018-12-24T02:17:08.338Z,3.58
2018-12-24T02:18:13.685Z,3.60
2018-12-24T02:19:19.011Z,3.62
2018-12-24T02:20:24.450Z,3.72
2018-12-24T02:21:29.748Z,4.28
2018-12-24T02:22:35.181Z,4.15
2018-12-24T02:23:40.557Z,4.30
2018-12-24T02:24:45.902Z,3.70
2018-12-24T02:25:51.162Z,3.83
2018-12-24T02:26:56.628Z,3.77
2018-12-24T02:28:01.856Z,3.50
2018-12-24T02:29:07.292Z,3.08
2018-12-24T02:30:12.898Z,3.45
2018-12-24T02:31:18.259Z,4.85
2018-12-24T02:32:23.702Z,3.75
2018-12-24T02:33:29.109Z,4.67
2018-12-24T02:34:34.544Z,4.30
2018-12-24T02:35:39.992Z,3.83
2018-12-24T02:36:45.330Z,3.77
2018-12-24T02:37:50.718Z,3.77
2018-12-24T02:38:56.116Z,3.90
2018-12-24T02:40:01.458Z,4.17
2018-12-24T02:41:07.051Z,3.87
2018-12-24T02:42:12.351Z,4.17
2018-12-24T02:43:18.100Z,3.83
2018-12-24T02:44:23.532Z,4.28
2018-12-24T02:45:28.935Z,3.75
2018-12-24T02:46:34.548Z,4.20
2018-12-24T02:47:41.224Z,3.90
2018-12-24T02:48:46.544Z,4.00
2018-12-24T02:49:51.968Z,4.03
2018-12-24T02:50:57.196Z,4.00
2018-12-24T02:52:02.757Z,4.20
2018-12-24T02:53:08.246Z,3.77
2018-12-24T02:54:13.559Z,4.10
2018-12-24T02:55:18.968Z,3.75
2018-12-24T02:56:24.383Z,3.90
2018-12-24T02:57:29.657Z,3.87
2018-12-24T02:58:35.113Z,4.15
2018-12-24T02:59:40.582Z,4.17
2018-12-24T03:00:46.021Z,3.98
2018-12-24T03:01:51.770Z,4.25
2018-12-24T03:02:57.138Z,4.20
2018-12-24T03:04:03.527Z,4.45
2018-12-24T03:05:08.981Z,4.62
2018-12-24T03:06:14.295Z,5.00
2018-12-24T03:07:19.663Z,4.55
2018-12-24T03:08:24.968Z,4.47
2018-12-24T03:09:30.400Z,4.00
2018-12-24T03:10:35.792Z,4.20
2018-12-24T03:11:41.120Z,4.60
2018-12-24T03:12:46.692Z,3.80
2018-12-24T03:13:52.005Z,4.20
2018-12-24T03:14:57.288Z,4.40
2018-12-24T03:16:02.636Z,3.77
2018-12-24T03:17:08.215Z,3.85
2018-12-24T03:18:16.727Z,4.05
2018-12-24T03:19:22.115Z,3.83
2018-12-24T03:20:27.460Z,3.92
2018-12-24T03:21:32.921Z,4.30
2018-12-24T03:22:38.235Z,4.08
2018-12-24T03:23:43.618Z,3.83
2018-12-24T03:24:48.970Z,3.33
2018-12-24T03:25:54.289Z,3.87
2018-12-24T03:26:59.671Z,3.95
2018-12-24T03:28:08.174Z,3.70
2018-12-24T03:29:13.592Z,4.00
2018-12-24T03:30:19.129Z,4.03
2018-12-24T03:31:24.393Z,4.10
2018-12-24T03:32:29.770Z,4.03
2018-12-24T03:33:36.317Z,3.55
2018-12-24T03:34:41.568Z,3.90
2018-12-24T03:35:46.974Z,3.80
2018-12-24T03:36:52.280Z,4.00
2018-12-24T03:38:00.572Z,3.77
2018-12-24T03:39:07.138Z,4.10
2018-12-24T03:40:12.564Z,3.60
2018-12-24T03:41:17.903Z,4.10
2018-12-24T03:42:23.147Z,3.90
2018-12-24T03:43:28.485Z,4.40
2018-12-24T03:44:34.123Z,4.12
2018-12-24T03:45:39.433Z,4.47
2018-12-24T03:46:44.679Z,4.05
2018-12-24T03:47:50.091Z,4.50
2018-12-24T03:48:56.538Z,3.50
2018-12-24T03:50:01.896Z,4.28
2018-12-24T03:51:07.191Z,3.90
2018-12-24T03:52:12.573Z,3.98
2018-12-24T03:53:17.985Z,3.72
2018-12-24T03:54:23.271Z,4.45
2018-12-24T03:55:28.673Z,4.55
2018-12-24T03:56:34.012Z,4.72
2018-12-24T03:57:39.937Z,4.15
2018-12-24T03:58:45.275Z,4.37
2018-12-24T03:59:50.671Z,4.62
2018-12-24T04:00:55.993Z,4.80
2018-12-24T04:02:01.256Z,4.15
2018-12-24T04:03:06.649Z,4.40
2018-12-24T04:04:12.032Z,4.80
2018-12-24T04:05:17.317Z,4.70
2018-12-24T04:06:22.733Z,4.85
2018-12-24T04:07:28.144Z,3.92
2018-12-24T04:08:33.480Z,4.78
2018-12-24T04:09:38.864Z,4.47
2018-12-24T04:10:44.362Z,4.50
2018-12-24T04:11:49.633Z,4.10
2018-12-24T04:12:55.059Z,4.30
2018-12-24T04:14:00.423Z,3.45
2018-12-24T04:15:05.949Z,4.08
2018-12-24T04:16:11.238Z,3.92
2018-12-24T04:17:17.134Z,4.10
2018-12-24T04:18:22.581Z,3.30
2018-12-24T04:19:27.850Z,3.15
2018-12-24T04:20:33.229Z,3.30
2018-12-24T04:21:38.638Z,3.45
2018-12-24T04:22:43.989Z,3.30
2018-12-24T04:23:49.345Z,3.12
2018-12-24T04:24:54.860Z,3.47
2018-12-24T04:26:00.261Z,3.47
2018-12-24T04:27:05.508Z,3.20
2018-12-24T04:28:10.965Z,3.40
2018-12-24T04:29:16.347Z,3.50
2018-12-24T04:30:21.622Z,3.95
2018-12-24T04:31:27.098Z,3.33
2018-12-24T04:32:32.438Z,3.55
2018-12-24T04:33:37.916Z,3.20
2018-12-24T04:34:43.237Z,3.17
2018-12-24T04:35:48.624Z,3.17
2018-12-24T04:36:53.946Z,3.67
2018-12-24T04:37:59.204Z,3.65
2018-12-24T04:39:05.686Z,3.60
2018-12-24T04:40:11.067Z,3.50
2018-12-24T04:41:16.436Z,3.25
2018-12-24T04:42:21.807Z,3.58
2018-12-24T04:43:32.033Z,3.50
2018-12-24T04:44:34.539Z,3.12
2018-12-24T04:45:39.905Z,3.05
2018-12-24T04:46:45.336Z,3.02
2018-12-24T04:47:50.644Z,3.00
2018-12-24T04:48:59.096Z,3.42
2018-12-24T04:50:04.445Z,3.30
2018-12-24T04:51:09.820Z,3.20
2018-12-24T04:52:15.189Z,4.05
2018-12-24T04:53:20.587Z,3.90
2018-12-24T04:54:25.995Z,3.90
2018-12-24T04:55:31.227Z,3.62
2018-12-24T04:56:36.631Z,3.47
2018-12-24T04:57:42.045Z,4.00
2018-12-24T04:58:47.315Z,4.42
2018-12-24T04:59:52.692Z,4.42
2018-12-24T05:00:58.100Z,4.25
2018-12-24T05:02:03.471Z,4.05
2018-12-24T05:03:08.837Z,3.95
2018-12-24T05:04:14.253Z,4.00
2018-12-24T05:05:19.704Z,3.92
2018-12-24T05:06:25.002Z,4.17
2018-12-24T05:07:30.363Z,4.42
2018-12-24T05:08:35.756Z,4.25
2018-12-24T05:09:41.149Z,4.60
2018-12-24T05:10:46.601Z,4.35
2018-12-24T05:11:51.991Z,4.87
2018-12-24T05:12:57.377Z,4.33
2018-12-24T05:14:02.652Z,4.78
2018-12-24T05:15:08.057Z,4.22
2018-12-24T05:16:13.460Z,4.60
2018-12-24T05:17:18.756Z,4.80
2018-12-24T05:18:24.169Z,4.05
2018-12-24T05:19:29.544Z,4.05
2018-12-24T05:20:34.908Z,4.17
2018-12-24T05:21:40.275Z,4.08
2018-12-24T05:22:45.648Z,4.35
2018-12-24T05:23:51.013Z,4.12
2018-12-24T05:24:56.261Z,4.10
2018-12-24T05:26:01.737Z,3.70
2018-12-24T05:27:07.252Z,3.92
2018-12-24T05:28:12.501Z,4.15
2018-12-24T05:29:17.764Z,3.72
2018-12-24T05:30:23.181Z,4.10
2018-12-24T05:31:28.607Z,4.22
2018-12-24T05:32:33.864Z,4.22
2018-12-24T05:33:39.248Z,3.92
2018-12-24T05:34:44.673Z,4.30
2018-12-24T05:35:50.061Z,4.40
2018-12-24T05:36:55.375Z,4.00
2018-12-24T05:38:00.775Z,4.10
2018-12-24T05:39:07.684Z,4.40
2018-12-24T05:40:13.072Z,4.30
2018-12-24T05:41:18.559Z,4.47
2018-12-24T05:42:23.809Z,4.30
2018-12-24T05:43:29.204Z,4.70
2018-12-24T05:44:34.569Z,4.10
2018-12-24T05:45:39.965Z,4.12
2018-12-24T05:46:45.288Z,4.45
2018-12-24T05:47:50.708Z,4.17
2018-12-24T05:48:56.248Z,3.95
2018-12-24T05:50:01.489Z,4.47
2018-12-24T05:51:06.796Z,4.58
2018-12-24T05:52:12.192Z,4.65
2018-12-24T05:53:17.600Z,4.90
2018-12-24T05:54:22.932Z,4.50
2018-12-24T05:55:28.456Z,4.22
2018-12-24T05:56:33.841Z,4.92
2018-12-24T05:57:39.201Z,4.28
2018-12-24T05:58:44.618Z,3.95
2018-12-24T05:59:50.028Z,4.10
2018-12-24T06:00:55.404Z,4.25
2018-12-24T06:02:00.841Z,4.33
2018-12-24T06:03:06.180Z,4.70
2018-12-24T06:04:11.562Z,4.12
2018-12-24T06:05:16.879Z,4.40
2018-12-24T06:06:22.379Z,4.65
2018-12-24T06:07:27.701Z,4.10
2018-12-24T06:08:33.187Z,4.25
2018-12-24T06:09:38.874Z,3.77
2018-12-24T06:10:44.294Z,4.65
2018-12-24T06:11:49.657Z,4.30
2018-12-24T06:12:55.032Z,4.30
2018-12-24T06:14:00.347Z,4.17
2018-12-24T06:15:06.004Z,4.60
2018-12-24T06:16:11.368Z,4.33
2018-12-24T06:17:16.855Z,4.15
2018-12-24T06:18:22.308Z,5.50
2018-12-24T06:19:27.644Z,5.00
2018-12-24T06:20:37.653Z,4.90
2018-12-24T06:21:40.120Z,4.85
2018-12-24T06:22:45.571Z,4.65
2018-12-24T06:23:50.964Z,4.80
2018-12-24T06:24:56.399Z,4.80
2018-12-24T06:26:01.895Z,5.20
2018-12-24T06:27:07.344Z,4.87
2018-12-24T06:28:12.704Z,4.70
2018-12-24T06:29:18.231Z,5.35
2018-12-24T06:30:23.741Z,4.97
2018-12-24T06:31:29.329Z,5.72
2018-12-24T06:32:35.031Z,5.03
2018-12-24T06:33:40.540Z,5.65
2018-12-24T06:34:46.066Z,5.78
2018-12-24T06:35:51.574Z,5.53
2018-12-24T06:36:57.058Z,5.45
2018-12-24T06:38:02.592Z,5.35
2018-12-24T06:39:09.231Z,6.05
2018-12-24T06:40:14.781Z,5.60
2018-12-24T06:41:20.398Z,5.72
2018-12-24T06:42:25.811Z,5.92
2018-12-24T06:43:31.304Z,6.62
2018-12-24T06:44:36.784Z,6.05
2018-12-24T06:45:42.212Z,6.40
2018-12-24T06:46:47.663Z,7.97
2018-12-24T06:47:53.296Z,6.37
2018-12-24T06:48:58.744Z,5.80
2018-12-24T06:50:04.269Z,6.00
2018-12-24T06:51:09.725Z,5.55
2018-12-24T06:52:15.151Z,5.95
2018-12-24T06:53:20.524Z,6.03
2018-12-24T06:54:25.921Z,7.25
2018-12-24T06:55:31.481Z,7.20
2018-12-24T06:56:36.971Z,7.08
2018-12-24T06:57:42.562Z,7.00
2018-12-24T06:58:48.052Z,7.00
2018-12-24T06:59:53.908Z,7.08
2018-12-24T07:00:59.435Z,7.33
2018-12-24T07:02:04.934Z,7.53
2018-12-24T07:03:10.329Z,6.85
2018-12-24T07:04:15.948Z,7.30
2018-12-24T07:05:21.307Z,7.05
2018-12-24T07:06:26.754Z,7.17
2018-12-24T07:07:32.520Z,5.95
2018-12-24T07:08:37.904Z,5.95
2018-12-24T07:09:43.199Z,6.45
2018-12-24T07:10:48.855Z,5.90
2018-12-24T07:11:54.595Z,5.80
2018-12-24T07:13:00.144Z,5.83
2018-12-24T07:14:05.907Z,6.10
2018-12-24T07:15:11.527Z,6.15
2018-12-24T07:16:16.865Z,6.00
2018-12-24T07:17:22.471Z,5.70
2018-12-24T07:18:30.012Z,6.10
2018-12-24T07:19:35.443Z,6.25
2018-12-24T07:20:40.858Z,6.85
2018-12-24T07:21:46.268Z,7.05
2018-12-24T07:22:51.644Z,7.87
2018-12-24T07:23:57.000Z,9.28
2018-12-24T07:25:02.594Z,10.25
2018-12-24T07:26:09.100Z,10.40
2018-12-24T07:27:14.701Z,8.18
2018-12-24T07:28:20.180Z,7.62
2018-12-24T07:29:25.595Z,8.00
2018-12-24T07:30:31.042Z,7.10
2018-12-24T07:31:36.293Z,6.80
2018-12-24T07:32:41.806Z,6.67
2018-12-24T07:33:47.275Z,6.67
2018-12-24T07:34:52.566Z,5.83
2018-12-24T07:35:58.013Z,5.97
2018-12-24T07:37:05.384Z,6.25
2018-12-24T07:38:11.195Z,9.10
2018-12-24T07:39:20.858Z,5.58
2018-12-24T07:40:26.417Z,6.05
2018-12-24T07:41:31.904Z,6.60
2018-12-24T07:42:37.631Z,5.75
2018-12-24T07:43:43.060Z,5.33
2018-12-24T07:44:48.535Z,5.28
2018-12-24T07:45:53.829Z,5.47
2018-12-24T07:46:59.339Z,5.83
2018-12-24T07:48:04.668Z,5.33
2018-12-24T07:49:10.240Z,5.75
2018-12-24T07:50:15.751Z,5.70
2018-12-24T07:51:21.223Z,5.92
2018-12-24T07:52:26.564Z,5.58
2018-12-24T07:53:31.975Z,7.35
2018-12-24T07:54:37.275Z,6.03
2018-12-24T07:55:42.734Z,7.00
2018-12-24T07:56:48.257Z,5.97
2018-12-24T07:57:53.801Z,6.83
2018-12-24T07:58:59.199Z,6.50
2018-12-24T08:00:04.809Z,6.45
2018-12-24T08:01:10.250Z,7.40
2018-12-24T08:02:15.662Z,7.25
2018-12-24T08:03:21.189Z,7.83
2018-12-24T08:04:28.784Z,7.58
2018-12-24T08:05:33.676Z,7.15
2018-12-24T08:06:39.180Z,6.85
2018-12-24T08:07:44.566Z,6.90
2018-12-24T08:08:49.957Z,7.40
2018-12-24T08:09:55.425Z,7.12
2018-12-24T08:11:01.036Z,10.35
2018-12-24T08:12:06.386Z,6.62
2018-12-24T08:13:11.868Z,11.65
2018-12-24T08:14:20.114Z,12.40
2018-12-24T08:15:25.480Z,6.50
2018-12-24T08:16:30.896Z,6.37
2018-12-24T08:17:36.294Z,7.55
2018-12-24T08:18:42.015Z,7.10
2018-12-24T08:19:47.316Z,6.92
2018-12-24T08:20:52.612Z,9.88
2018-12-24T08:21:57.956Z,8.95
2018-12-24T08:23:03.369Z,7.90
2018-12-24T08:24:08.739Z,8.45
2018-12-24T08:25:14.120Z,9.05
2018-12-24T08:26:19.560Z,8.33
2018-12-24T08:27:25.005Z,8.30
2018-12-24T08:28:30.356Z,8.53
2018-12-24T08:29:35.687Z,6.90
2018-12-24T08:30:41.116Z,8.15
2018-12-24T08:31:46.481Z,8.30
2018-12-24T08:32:52.002Z,7.25
2018-12-24T08:33:57.583Z,7.92
2018-12-24T08:35:03.025Z,7.55
2018-12-24T08:36:08.611Z,8.53
2018-12-24T08:37:14.216Z,9.60
2018-12-24T08:38:19.525Z,9.68
2018-12-24T08:39:25.154Z,8.48
2018-12-24T08:40:30.534Z,7.45
2018-12-24T08:41:35.944Z,8.10
2018-12-24T08:42:41.298Z,7.78
2018-12-24T08:43:46.779Z,8.08
2018-12-24T08:44:52.116Z,7.10
2018-12-24T08:45:57.392Z,8.30
2018-12-24T08:47:02.801Z,8.10
2018-12-24T08:48:08.293Z,8.13
2018-12-24T08:50:03.335Z,8.33
2018-12-24T08:51:08.319Z,8.30
2018-12-24T08:52:13.320Z,8.55
2018-12-24T08:53:18.274Z,10.58
2018-12-24T08:54:23.360Z,9.30
2018-12-24T08:55:28.429Z,8.18
2018-12-24T08:56:33.532Z,8.58
2018-12-24T08:57:38.543Z,8.10
2018-12-24T08:58:43.437Z,9.03
2018-12-24T08:59:48.472Z,8.68
2018-12-24T09:00:53.581Z,8.73
2018-12-24T09:01:58.810Z,9.43
2018-12-24T09:03:03.913Z,8.88
2018-12-24T09:04:08.826Z,9.65
2018-12-24T09:05:13.937Z,10.53
2018-12-24T09:06:19.303Z,9.38
2018-12-24T09:07:24.245Z,8.85
2018-12-24T09:08:29.334Z,9.35
2018-12-24T09:09:34.370Z,9.50
2018-12-24T09:10:39.200Z,9.33
2018-12-24T09:11:44.161Z,9.05
2018-12-24T09:12:49.221Z,8.95
2018-12-24T09:13:54.301Z,8.78
2018-12-24T09:14:59.220Z,8.73
2018-12-24T09:16:04.280Z,7.12
2018-12-24T09:17:09.169Z,8.20
2018-12-24T09:18:14.052Z,8.33
2018-12-24T09:19:18.936Z,8.53
2018-12-24T09:20:23.892Z,7.92
2018-12-24T09:21:28.932Z,7.85
2018-12-24T09:22:33.892Z,8.38
2018-12-24T09:23:38.957Z,8.43
2018-12-24T09:24:43.814Z,9.10
2018-12-24T09:25:48.723Z,8.50
2018-12-24T09:26:53.599Z,8.58
2018-12-24T09:27:58.452Z,8.93
2018-12-24T09:29:03.575Z,8.90
2018-12-24T09:30:11.468Z,9.30
2018-12-24T09:31:16.302Z,8.08
2018-12-24T09:32:21.365Z,8.45
2018-12-24T09:33:26.213Z,7.85
2018-12-24T09:34:31.435Z,9.55
2018-12-24T09:35:36.399Z,8.78
2018-12-24T09:36:41.357Z,8.75
2018-12-24T09:37:46.262Z,9.93
2018-12-24T09:38:51.232Z,13.55
2018-12-24T09:39:56.121Z,10.70
2018-12-24T09:41:01.007Z,9.73
2018-12-24T09:42:06.002Z,12.23
2018-12-24T09:43:11.074Z,12.88
2018-12-24T09:44:16.002Z,10.15
2018-12-24T09:45:20.957Z,8.68
2018-12-24T09:46:25.902Z,9.90
2018-12-24T09:47:30.756Z,9.38
2018-12-24T09:48:35.752Z,10.15
2018-12-24T09:49:40.683Z,10.32
2018-12-24T09:50:45.600Z,10.75
2018-12-24T09:51:50.450Z,12.85
2018-12-24T09:52:55.393Z,10.80
2018-12-24T09:54:00.312Z,12.37
2018-12-24T09:55:05.439Z,10.10
2018-12-24T09:56:12.451Z,9.93
2018-12-24T09:57:16.921Z,9.15
2018-12-24T09:58:21.853Z,8.90
2018-12-24T09:59:26.927Z,11.20
2018-12-24T10:00:31.875Z,11.40
2018-12-24T10:01:36.722Z,10.38
2018-12-24T10:02:45.076Z,10.40
2018-12-24T10:03:53.563Z,11.65
2018-12-24T10:04:58.473Z,9.38
2018-12-24T10:06:30.195Z,10.18
2018-12-24T10:07:37.366Z,8.83
2018-12-24T10:08:42.384Z,8.00
2018-12-24T10:09:47.397Z,7.10
2018-12-24T10:10:52.436Z,9.13
2018-12-24T10:11:57.561Z,9.13
2018-12-24T10:13:02.400Z,8.60
2018-12-24T10:14:07.403Z,8.23
2018-12-24T10:15:14.354Z,7.65
2018-12-24T10:16:19.380Z,6.95
2018-12-24T10:17:24.241Z,7.70
2018-12-24T10:18:29.115Z,7.20
2018-12-24T10:19:34.236Z,7.97
2018-12-24T10:20:39.093Z,7.80
2018-12-24T10:21:44.091Z,11.33
2018-12-24T10:22:48.964Z,9.10
2018-12-24T10:23:56.140Z,7.78
2018-12-24T10:25:01.394Z,8.68
2018-12-24T10:26:06.291Z,9.83
2018-12-24T10:27:11.133Z,7.35
2018-12-24T10:28:16.156Z,8.43
2018-12-24T10:29:21.121Z,8.03
2018-12-24T10:30:26.119Z,14.50
2018-12-24T10:31:31.001Z,7.85
2018-12-24T10:32:35.836Z,9.63
2018-12-24T10:33:41.145Z,8.35
2018-12-24T10:34:50.495Z,8.85
2018-12-24T10:35:56.514Z,9.20
2018-12-24T10:37:01.891Z,7.67
2018-12-24T10:38:07.181Z,7.17
2018-12-24T10:39:12.616Z,7.60
2018-12-24T10:40:18.919Z,6.92
2018-12-24T10:41:26.284Z,7.55
2018-12-24T10:42:31.353Z,7.17
2018-12-24T10:43:37.854Z,6.47
2018-12-24T10:44:42.830Z,7.95
2018-12-24T10:45:47.835Z,5.90
2018-12-24T10:46:52.805Z,6.55
2018-12-24T10:47:57.726Z,7.35
2018-12-24T10:49:02.713Z,8.15
2018-12-24T10:50:07.974Z,7.30
2018-12-24T10:51:13.031Z,7.40
2018-12-24T10:52:18.007Z,6.80
2018-12-24T10:53:22.879Z,6.33
2018-12-24T10:54:28.531Z,6.83
2018-12-24T10:55:33.482Z,6.75
2018-12-24T10:56:39.907Z,6.85
2018-12-24T10:57:45.226Z,7.08
2018-12-24T10:58:50.112Z,7.62
2018-12-24T10:59:55.314Z,7.05
2018-12-24T11:01:00.196Z,6.60
2018-12-24T11:02:05.202Z,7.17
2018-12-24T11:03:10.244Z,7.03
2018-12-24T11:04:15.285Z,6.33
2018-12-24T11:05:20.203Z,11.33
2018-12-24T11:06:25.148Z,6.30
2018-12-24T11:07:30.239Z,6.90
2018-12-24T11:08:35.071Z,6.53
2018-12-24T11:09:40.233Z,7.08
2018-12-24T11:10:46.713Z,6.37
2018-12-24T11:11:51.953Z,6.50
2018-12-24T11:12:56.771Z,8.73
2018-12-24T11:14:01.690Z,8.13
2018-12-24T11:15:08.160Z,7.65
2018-12-24T11:16:13.081Z,6.17
2018-12-24T11:17:18.006Z,5.33
2018-12-24T11:18:22.836Z,6.72
2018-12-24T11:19:27.863Z,6.72
2018-12-24T11:20:32.834Z,6.97
2018-12-24T11:21:37.713Z,6.33
2018-12-24T11:22:42.642Z,7.15
2018-12-24T11:23:47.481Z,6.47
2018-12-24T11:24:52.396Z,6.17
2018-12-24T11:25:57.520Z,6.87
2018-12-24T11:27:02.392Z,6.95
2018-12-24T11:28:07.352Z,7.33
2018-12-24T11:29:12.270Z,7.78
2018-12-24T11:30:17.481Z,7.40
2018-12-24T11:31:22.403Z,7.50
2018-12-24T11:32:27.354Z,6.95
2018-12-24T11:33:32.242Z,7.45
2018-12-24T11:34:37.276Z,7.85
2018-12-24T11:35:42.233Z,7.67
2018-12-24T11:36:47.090Z,7.25
2018-12-24T11:37:52.123Z,7.03
2018-12-24T11:38:58.195Z,7.20
2018-12-24T11:40:03.152Z,7.10
2018-12-24T11:41:08.165Z,6.78
2018-12-24T11:42:13.236Z,6.35
2018-12-24T11:43:18.273Z,7.30
2018-12-24T11:44:23.203Z,6.50
2018-12-24T11:45:33.812Z,5.47
2018-12-24T11:46:34.626Z,6.62
2018-12-24T11:47:39.761Z,7.00
2018-12-24T11:48:44.803Z,9.30
2018-12-24T11:49:49.841Z,27.35
2018-12-24T11:50:54.996Z,34.58
2018-12-24T11:52:00.396Z,55.50
2018-12-24T11:53:05.258Z,41.63
2018-12-24T11:54:10.233Z,46.88
2018-12-24T11:55:15.276Z,20.95
2018-12-24T11:56:20.256Z,9.90
2018-12-24T11:57:25.263Z,7.67
2018-12-24T11:58:30.491Z,8.68
2018-12-24T11:59:35.467Z,8.58
2018-12-24T12:00:40.593Z,6.85
2018-12-24T12:01:45.647Z,7.22
2018-12-24T12:02:51.760Z,7.25
2018-12-24T12:03:56.653Z,7.10
2018-12-24T12:05:01.599Z,7.10
2018-12-24T12:06:06.633Z,7.10
2018-12-24T12:07:11.683Z,8.03
2018-12-24T12:08:16.797Z,7.50
2018-12-24T12:09:21.851Z,8.45
2018-12-24T12:10:26.951Z,14.75
2018-12-24T12:11:32.221Z,46.00
2018-12-24T12:12:37.151Z,124.90
2018-12-24T12:13:42.168Z,47.80
2018-12-24T12:14:47.002Z,76.07
2018-12-24T12:15:52.081Z,103.55
2018-12-24T12:16:57.033Z,32.20
2018-12-24T12:18:01.883Z,44.15
2018-12-24T12:19:06.927Z,8.03
2018-12-24T12:20:11.960Z,7.45
2018-12-24T12:21:16.832Z,6.28
2018-12-24T12:22:21.851Z,6.28
2018-12-24T12:23:26.711Z,5.95
2018-12-24T12:24:31.569Z,6.35
2018-12-24T12:25:36.614Z,6.15
2018-12-24T12:26:41.769Z,5.90
2018-12-24T12:27:46.636Z,5.40
2018-12-24T12:28:51.749Z,5.83
2018-12-24T12:29:56.606Z,5.95
2018-12-24T12:31:01.553Z,5.47
2018-12-24T12:32:06.596Z,6.20
2018-12-24T12:33:11.815Z,6.40
2018-12-24T12:34:16.765Z,6.12
2018-12-24T12:35:21.841Z,5.90
2018-12-24T12:36:27.009Z,5.53
2018-12-24T12:37:32.085Z,5.65
2018-12-24T12:38:37.076Z,11.35
2018-12-24T12:39:42.118Z,21.90
2018-12-24T12:40:46.901Z,21.52
2018-12-24T12:41:51.801Z,13.35
2018-12-24T12:42:56.898Z,14.35
2018-12-24T12:44:01.952Z,6.90
2018-12-24T12:45:07.013Z,5.75
2018-12-24T12:46:12.237Z,6.45
2018-12-24T12:47:17.249Z,5.75
2018-12-24T12:48:22.241Z,5.60
2018-12-24T12:49:27.142Z,4.72
2018-12-24T12:50:32.090Z,4.62
2018-12-24T12:51:37.478Z,5.08
2018-12-24T12:52:42.467Z,5.08
2018-12-24T12:53:47.447Z,5.20
2018-12-24T12:54:52.535Z,5.00
2018-12-24T12:55:57.595Z,5.37
2018-12-24T12:57:02.695Z,5.45
2018-12-24T12:58:07.640Z,5.62
2018-12-24T12:59:12.559Z,5.33
2018-12-24T13:00:17.672Z,5.60
2018-12-24T13:01:22.631Z,5.45
2018-12-24T13:02:27.634Z,4.92
2018-12-24T13:03:32.812Z,5.20
2018-12-24T13:04:37.846Z,6.20
2018-12-24T13:05:42.751Z,6.17
2018-12-24T13:06:47.800Z,5.50
2018-12-24T13:07:52.720Z,7.35
2018-12-24T13:08:57.663Z,8.68
2018-12-24T13:10:04.507Z,6.40
2018-12-24T13:11:09.239Z,6.15
2018-12-24T13:12:14.113Z,6.22
2018-12-24T13:13:19.108Z,6.87
2018-12-24T13:14:23.992Z,7.03
2018-12-24T13:15:28.800Z,7.15
2018-12-24T13:16:33.775Z,7.05
2018-12-24T13:17:38.883Z,7.53
2018-12-24T13:18:43.800Z,7.58
2018-12-24T13:19:48.847Z,7.78
2018-12-24T13:20:53.778Z,7.42
2018-12-24T13:22:04.234Z,8.63
2018-12-24T13:23:05.392Z,8.93
2018-12-24T13:24:10.473Z,8.65
2018-12-24T13:25:15.326Z,9.28
2018-12-24T13:26:20.194Z,8.20
2018-12-24T13:27:25.117Z,8.78
2018-12-24T13:28:30.114Z,9.28
2018-12-24T13:29:34.961Z,9.53
2018-12-24T13:30:39.848Z,10.20
2018-12-24T13:31:44.785Z,11.12
2018-12-24T13:32:49.742Z,10.70
2018-12-24T13:33:54.671Z,10.65
2018-12-24T13:34:59.589Z,17.20
2018-12-24T13:36:06.955Z,11.38
2018-12-24T13:37:11.988Z,11.97
2018-12-24T13:38:16.935Z,11.68
2018-12-24T13:39:21.863Z,10.80
2018-12-24T13:40:26.850Z,11.10
2018-12-24T13:41:31.872Z,11.18
2018-12-24T13:42:36.835Z,10.13
2018-12-24T13:43:41.798Z,10.72
2018-12-24T13:44:46.805Z,10.05
2018-12-24T13:45:51.804Z,9.58
2018-12-24T13:46:56.778Z,9.03
2018-12-24T13:48:01.752Z,9.08
2018-12-24T13:49:06.581Z,9.10
2018-12-24T13:50:11.431Z,9.65
2018-12-24T13:51:16.325Z,8.88
2018-12-24T13:52:21.185Z,8.05
2018-12-24T13:53:26.267Z,8.48
2018-12-24T13:54:31.195Z,8.13
2018-12-24T13:55:36.160Z,8.18
2018-12-24T13:56:40.959Z,8.15
2018-12-24T13:57:45.871Z,8.80
2018-12-24T13:58:50.680Z,9.98
2018-12-24T13:59:55.602Z,15.68
2018-12-24T14:01:00.441Z,14.28
2018-12-24T14:02:05.417Z,30.82
2018-12-24T14:03:10.320Z,9.43
2018-12-24T14:04:15.300Z,8.75
2018-12-24T14:05:20.241Z,9.80
2018-12-24T14:06:25.084Z,9.30
2018-12-24T14:07:29.954Z,9.68
2018-12-24T14:08:34.800Z,10.70
2018-12-24T14:09:39.607Z,13.53
2018-12-24T14:10:44.722Z,13.08
2018-12-24T14:11:49.856Z,9.90
2018-12-24T14:12:55.427Z,43.15
2018-12-24T14:14:00.476Z,18.62
2018-12-24T14:15:06.539Z,30.77
2018-12-24T14:16:16.672Z,17.45
2018-12-24T14:17:18.042Z,34.50
2018-12-24T14:18:22.952Z,15.13
2018-12-24T14:19:27.954Z,19.05
2018-12-24T14:20:32.795Z,20.20
2018-12-24T14:21:37.749Z,40.58
2018-12-24T14:22:42.672Z,41.18
2018-12-24T14:23:47.755Z,17.98
2018-12-24T14:24:52.844Z,13.00
2018-12-24T14:25:57.761Z,19.37
2018-12-24T14:27:02.672Z,44.60
2018-12-24T14:28:07.531Z,29.65